»·PEaware :: DCM206 KEGE-KTEX

DCM206 :: KEGE-KTEX

FLIGHT INFORMATION

Flight Status: Arrived
Operator:
DotCom
More flights by this operator :: More flights under this callsign
Pilot: Nick L. (7253)
Aircraft: BOEING 737-800
(B738)
More flights by this aircraft type
Origin: KEGE Eagle Co Regl
United States
Destination: KTEX Telluride Regl
United States
More flights between these airports :: More routes between these airports
Route: BEVVR1 SPRKT JNC ETL
File this flight plan on PilotEdge
Remarks: RMK / SIMBRIEF
Altitude:
(Current/Filed)
30,000ft
Speed:
(Current/Filed)
452kts
Departed: 17-Feb-21 11:54 AM
Arrived: 17-Feb-21 12:28 PM
Distance/Time
Traveled:
111nm/0:33
Distance/Time
To Go:
Arrived

Flight Plot

Page will automatically refresh every two minutes.

Flight plan parsing failed; only flown route is shown


Map Options




Map Legend


Flown Route
Filed Route
Departure Airport
Arrival Airport
Navaid (VOR, NDB)
Fix

Horizontal Profiles

Position Reports

Time Latitude Longitude Heading Altitude Ground
Speed
17-Feb-21 11:34 39.642416 -106.901880 261 6554ft 0kts
17-Feb-21 11:36 39.642416 -106.901880 261 6554ft 0kts
17-Feb-21 11:36 39.642416 -106.901880 261 6554ft 0kts
17-Feb-21 11:37 39.642416 -106.901880 261 6553ft 0kts
17-Feb-21 11:39 39.642416 -106.901880 261 6553ft 0kts
17-Feb-21 11:39 39.642416 -106.901880 261 6553ft 0kts
17-Feb-21 11:41 39.642416 -106.901879 261 6553ft 0kts
17-Feb-21 11:41 39.642416 -106.901879 261 6553ft 0kts
17-Feb-21 11:42 39.642416 -106.901879 261 6553ft 0kts
17-Feb-21 11:43 39.642416 -106.901879 261 6553ft 0kts
17-Feb-21 11:44 39.642416 -106.901879 261 6553ft 0kts
17-Feb-21 11:45 39.642416 -106.901879 261 6553ft 0kts
17-Feb-21 11:46 39.642416 -106.901879 261 6553ft 0kts
17-Feb-21 11:47 39.642416 -106.901879 261 6553ft 0kts
17-Feb-21 11:48 39.642416 -106.901879 261 6553ft 0kts
17-Feb-21 11:49 39.642416 -106.901880 261 6553ft 0kts
17-Feb-21 11:50 39.642416 -106.901880 261 6553ft 0kts
17-Feb-21 11:51 39.643033 -106.902457 33 6553ft 4kts
17-Feb-21 11:52 39.643523 -106.900242 41 6553ft 4kts
17-Feb-21 11:53 39.643724 -106.907278 261 6553ft 94kts
17-Feb-21 11:54 39.633115 -106.964901 236 7743ft 194kts
17-Feb-21 11:55 39.586155 -106.993002 212 10051ft 198kts
17-Feb-21 11:56 39.589904 -107.066083 302 11108ft 260kts
17-Feb-21 11:57 39.650469 -107.108979 8 13974ft 267kts
17-Feb-21 11:58 39.724427 -107.102095 341 16510ft 284kts
17-Feb-21 11:59 39.785907 -107.189569 305 16756ft 379kts
17-Feb-21 12:00 39.846070 -107.306347 305 18978ft 396kts
17-Feb-21 12:01 39.881325 -107.440777 264 21179ft 415kts
17-Feb-21 12:02 39.824103 -107.573060 233 23118ft 434kts
17-Feb-21 12:03 39.747742 -107.697149 233 24885ft 445kts
17-Feb-21 12:04 39.669758 -107.823336 233 26514ft 454kts
17-Feb-21 12:05 39.589809 -107.952161 233 27994ft 463kts
17-Feb-21 12:06 39.508970 -108.081833 233 29723ft 461kts
17-Feb-21 12:07 39.427206 -108.212464 233 29942ft 472kts
17-Feb-21 12:08 39.344648 -108.343760 233 29945ft 470kts
17-Feb-21 12:09 39.261898 -108.474786 233 29945ft 470kts
17-Feb-21 12:10 39.182557 -108.599795 233 29949ft 446kts
17-Feb-21 12:11 39.100550 -108.721494 219 29940ft 451kts
17-Feb-21 12:12 38.979370 -108.754959 168 29946ft 469kts
17-Feb-21 12:13 38.858801 -108.689531 157 29673ft 476kts
17-Feb-21 12:14 38.740355 -108.624445 158 28075ft 457kts
17-Feb-21 12:15 38.622373 -108.561597 158 25468ft 453kts
17-Feb-21 12:16 38.510837 -108.502937 157 23014ft 420kts
17-Feb-21 12:17 38.405586 -108.447817 157 20629ft 401kts
17-Feb-21 12:18 38.305056 -108.395358 157 18298ft 384kts
17-Feb-21 12:19 38.210619 -108.346382 158 17135ft 342kts
17-Feb-21 12:20 38.126718 -108.302973 158 16219ft 310kts
17-Feb-21 12:21 38.051898 -108.259074 136 15266ft 289kts
17-Feb-21 12:22 38.014265 -108.177288 110 13919ft 247kts
17-Feb-21 12:23 37.994732 -108.103748 105 12623ft 194kts
17-Feb-21 12:24 37.982342 -108.044840 105 11577ft 168kts
17-Feb-21 12:25 37.970422 -107.988118 104 10502ft 165kts
17-Feb-21 12:26 37.958800 -107.932327 105 9253ft 159kts
17-Feb-21 12:27 37.952396 -107.901482 41 9076ft 2kts
17-Feb-21 12:28 37.953473 -107.901574 315 9076ft 1kts
17-Feb-21 12:29 37.953897 -107.901560 106 9076ft 0kts
17-Feb-21 12:30 37.953897 -107.901560 106 9076ft 0kts
17-Feb-21 12:31 37.953897 -107.901560 106 9076ft 0kts
17-Feb-21 12:37 37.953788 -107.901138 195 9076ft 0kts
17-Feb-21 12:38 37.953788 -107.901138 195 9076ft 0kts
17-Feb-21 12:39 37.953788 -107.901138 195 9076ft 0kts
17-Feb-21 12:40 37.953789 -107.901138 195 9076ft 0kts

Navigation Log

Ident Type
Flight plan parsing failed, navigation log unavailable